sensor_id;sensor_type;location;lat;lon;timestamp;P1;durP1;ratioP1;P2;durP2;ratioP2
18580;SDS011;9420;50.876;7.012;2023-12-20T00:00:12;18.27;;;10.87;;
18580;SDS011;9420;50.876;7.012;2023-12-20T00:02:39;17.87;;;10.83;;
18580;SDS011;9420;50.876;7.012;2023-12-20T00:05:10;17.33;;;11.90;;
18580;SDS011;9420;50.876;7.012;2023-12-20T00:07:36;28.40;;;12.07;;
18580;SDS011;9420;50.876;7.012;2023-12-20T00:10:03;21.43;;;12.40;;
18580;SDS011;9420;50.876;7.012;2023-12-20T00:12:31;18.17;;;11.53;;
18580;SDS011;9420;50.876;7.012;2023-12-20T00:15:00;21.77;;;13.27;;
18580;SDS011;9420;50.876;7.012;2023-12-20T00:17:27;20.50;;;12.87;;
18580;SDS011;9420;50.876;7.012;2023-12-20T00:19:53;24.67;;;14.27;;
18580;SDS011;9420;50.876;7.012;2023-12-20T00:22:20;24.43;;;13.43;;
18580;SDS011;9420;50.876;7.012;2023-12-20T00:24:46;23.50;;;14.60;;
18580;SDS011;9420;50.876;7.012;2023-12-20T00:27:13;25.53;;;14.57;;
18580;SDS011;9420;50.876;7.012;2023-12-20T00:29:41;19.33;;;12.70;;
18580;SDS011;9420;50.876;7.012;2023-12-20T00:32:08;21.00;;;13.23;;
18580;SDS011;9420;50.876;7.012;2023-12-20T00:34:34;20.67;;;12.60;;
18580;SDS011;9420;50.876;7.012;2023-12-20T00:37:01;22.23;;;13.10;;
18580;SDS011;9420;50.876;7.012;2023-12-20T00:39:28;15.13;;;10.63;;
18580;SDS011;9420;50.876;7.012;2023-12-20T00:41:54;19.07;;;11.93;;
18580;SDS011;9420;50.876;7.012;2023-12-20T00:44:21;15.33;;;10.20;;
18580;SDS011;9420;50.876;7.012;2023-12-20T00:46:49;12.37;;;8.53;;
18580;SDS011;9420;50.876;7.012;2023-12-20T00:49:16;14.23;;;9.70;;
18580;SDS011;9420;50.876;7.012;2023-12-20T00:51:43;16.73;;;10.23;;
18580;SDS011;9420;50.876;7.012;2023-12-20T00:54:09;14.67;;;9.80;;
18580;SDS011;9420;50.876;7.012;2023-12-20T00:56:36;18.77;;;9.70;;
18580;SDS011;9420;50.876;7.012;2023-12-20T00:59:02;14.87;;;9.77;;
18580;SDS011;9420;50.876;7.012;2023-12-20T01:01:29;9.27;;;7.77;;
18580;SDS011;9420;50.876;7.012;2023-12-20T01:03:59;11.20;;;8.10;;
18580;SDS011;9420;50.876;7.012;2023-12-20T01:06:26;11.47;;;8.27;;
18580;SDS011;9420;50.876;7.012;2023-12-20T01:08:52;14.43;;;9.73;;
18580;SDS011;9420;50.876;7.012;2023-12-20T01:11:19;14.07;;;9.00;;
18580;SDS011;9420;50.876;7.012;2023-12-20T01:13:45;11.43;;;7.90;;
18580;SDS011;9420;50.876;7.012;2023-12-20T01:16:12;12.50;;;8.30;;
18580;SDS011;9420;50.876;7.012;2023-12-20T01:18:38;10.57;;;7.77;;
18580;SDS011;9420;50.876;7.012;2023-12-20T01:21:06;12.17;;;8.17;;
18580;SDS011;9420;50.876;7.012;2023-12-20T01:23:36;17.67;;;9.13;;
18580;SDS011;9420;50.876;7.012;2023-12-20T01:26:03;14.40;;;8.40;;
18580;SDS011;9420;50.876;7.012;2023-12-20T01:28:30;14.57;;;8.03;;
18580;SDS011;9420;50.876;7.012;2023-12-20T01:30:57;13.50;;;8.07;;
18580;SDS011;9420;50.876;7.012;2023-12-20T01:33:24;13.37;;;7.93;;
18580;SDS011;9420;50.876;7.012;2023-12-20T01:35:50;14.43;;;8.30;;
18580;SDS011;9420;50.876;7.012;2023-12-20T01:38:18;14.50;;;8.63;;
18580;SDS011;9420;50.876;7.012;2023-12-20T01:40:45;14.33;;;9.30;;
18580;SDS011;9420;50.876;7.012;2023-12-20T01:43:12;17.27;;;10.17;;
18580;SDS011;9420;50.876;7.012;2023-12-20T01:45:39;13.87;;;9.83;;
18580;SDS011;9420;50.876;7.012;2023-12-20T01:48:06;16.57;;;9.63;;
18580;SDS011;9420;50.876;7.012;2023-12-20T01:50:34;20.07;;;10.03;;
18580;SDS011;9420;50.876;7.012;2023-12-20T01:53:02;21.73;;;12.13;;
18580;SDS011;9420;50.876;7.012;2023-12-20T01:55:32;18.73;;;11.63;;
18580;SDS011;9420;50.876;7.012;2023-12-20T01:58:00;16.47;;;10.37;;
18580;SDS011;9420;50.876;7.012;2023-12-20T02:00:27;21.67;;;11.63;;
18580;SDS011;9420;50.876;7.012;2023-12-20T02:02:55;21.20;;;11.50;;
18580;SDS011;9420;50.876;7.012;2023-12-20T02:05:22;20.43;;;10.30;;
18580;SDS011;9420;50.876;7.012;2023-12-20T02:07:48;14.67;;;10.53;;
18580;SDS011;9420;50.876;7.012;2023-12-20T02:10:15;20.37;;;10.60;;
18580;SDS011;9420;50.876;7.012;2023-12-20T02:12:43;14.07;;;8.63;;
18580;SDS011;9420;50.876;7.012;2023-12-20T02:15:10;18.17;;;7.27;;
18580;SDS011;9420;50.876;7.012;2023-12-20T02:17:37;13.83;;;7.87;;
18580;SDS011;9420;50.876;7.012;2023-12-20T02:20:06;13.43;;;7.00;;
18580;SDS011;9420;50.876;7.012;2023-12-20T02:22:34;20.57;;;7.73;;
18580;SDS011;9420;50.876;7.012;2023-12-20T02:25:01;20.97;;;6.97;;
18580;SDS011;9420;50.876;7.012;2023-12-20T02:27:28;19.40;;;7.00;;
18580;SDS011;9420;50.876;7.012;2023-12-20T02:29:55;16.47;;;6.70;;
18580;SDS011;9420;50.876;7.012;2023-12-20T02:32:22;19.90;;;8.00;;
18580;SDS011;9420;50.876;7.012;2023-12-20T02:34:51;10.93;;;5.77;;
18580;SDS011;9420;50.876;7.012;2023-12-20T02:37:18;11.60;;;5.33;;
18580;SDS011;9420;50.876;7.012;2023-12-20T02:39:46;16.70;;;5.10;;
18580;SDS011;9420;50.876;7.012;2023-12-20T02:42:12;10.83;;;4.50;;
18580;SDS011;9420;50.876;7.012;2023-12-20T02:44:39;12.63;;;5.07;;
18580;SDS011;9420;50.876;7.012;2023-12-20T02:47:06;22.30;;;5.07;;
18580;SDS011;9420;50.876;7.012;2023-12-20T02:49:32;11.27;;;5.13;;
18580;SDS011;9420;50.876;7.012;2023-12-20T02:51:59;18.47;;;5.20;;
18580;SDS011;9420;50.876;7.012;2023-12-20T02:54:26;13.03;;;4.27;;
18580;SDS011;9420;50.876;7.012;2023-12-20T02:56:53;12.47;;;3.97;;
18580;SDS011;9420;50.876;7.012;2023-12-20T02:59:20;14.27;;;3.83;;
18580;SDS011;9420;50.876;7.012;2023-12-20T03:01:47;14.07;;;3.83;;
18580;SDS011;9420;50.876;7.012;2023-12-20T03:04:13;14.20;;;3.73;;
18580;SDS011;9420;50.876;7.012;2023-12-20T03:06:40;10.73;;;3.43;;
18580;SDS011;9420;50.876;7.012;2023-12-20T03:09:07;13.23;;;3.07;;
18580;SDS011;9420;50.876;7.012;2023-12-20T03:11:33;10.53;;;3.50;;
18580;SDS011;9420;50.876;7.012;2023-12-20T03:14:01;14.27;;;2.97;;
18580;SDS011;9420;50.876;7.012;2023-12-20T03:16:28;10.33;;;3.07;;
18580;SDS011;9420;50.876;7.012;2023-12-20T03:18:56;12.57;;;2.90;;
18580;SDS011;9420;50.876;7.012;2023-12-20T03:21:22;19.87;;;3.73;;
18580;SDS011;9420;50.876;7.012;2023-12-20T03:23:49;10.97;;;3.60;;
18580;SDS011;9420;50.876;7.012;2023-12-20T03:26:15;12.30;;;3.30;;
18580;SDS011;9420;50.876;7.012;2023-12-20T03:28:42;13.50;;;3.17;;
18580;SDS011;9420;50.876;7.012;2023-12-20T03:31:10;12.83;;;2.73;;
18580;SDS011;9420;50.876;7.012;2023-12-20T03:33:37;15.10;;;3.10;;
18580;SDS011;9420;50.876;7.012;2023-12-20T03:36:03;16.50;;;3.13;;
18580;SDS011;9420;50.876;7.012;2023-12-20T03:38:30;18.40;;;3.53;;
18580;SDS011;9420;50.876;7.012;2023-12-20T03:40:57;15.07;;;3.17;;
18580;SDS011;9420;50.876;7.012;2023-12-20T03:43:23;12.33;;;3.27;;
18580;SDS011;9420;50.876;7.012;2023-12-20T03:45:50;19.97;;;3.83;;
18580;SDS011;9420;50.876;7.012;2023-12-20T03:48:18;19.47;;;5.03;;
18580;SDS011;9420;50.876;7.012;2023-12-20T03:50:44;18.13;;;4.77;;
18580;SDS011;9420;50.876;7.012;2023-12-20T03:53:11;17.30;;;4.90;;
18580;SDS011;9420;50.876;7.012;2023-12-20T03:55:37;16.97;;;3.70;;
18580;SDS011;9420;50.876;7.012;2023-12-20T03:58:04;20.40;;;3.87;;
18580;SDS011;9420;50.876;7.012;2023-12-20T04:00:31;18.07;;;3.80;;
18580;SDS011;9420;50.876;7.012;2023-12-20T04:02:57;18.73;;;3.93;;
18580;SDS011;9420;50.876;7.012;2023-12-20T04:05:25;20.87;;;4.07;;
18580;SDS011;9420;50.876;7.012;2023-12-20T04:07:52;16.33;;;3.57;;
18580;SDS011;9420;50.876;7.012;2023-12-20T04:10:19;14.80;;;3.47;;
18580;SDS011;9420;50.876;7.012;2023-12-20T04:12:45;11.40;;;3.63;;
18580;SDS011;9420;50.876;7.012;2023-12-20T04:15:12;20.10;;;4.87;;
18580;SDS011;9420;50.876;7.012;2023-12-20T04:17:38;17.27;;;4.00;;
18580;SDS011;9420;50.876;7.012;2023-12-20T04:20:06;16.93;;;3.80;;
18580;SDS011;9420;50.876;7.012;2023-12-20T04:22:35;20.33;;;3.63;;
18580;SDS011;9420;50.876;7.012;2023-12-20T04:25:01;17.73;;;3.43;;
18580;SDS011;9420;50.876;7.012;2023-12-20T04:27:28;11.33;;;3.70;;
18580;SDS011;9420;50.876;7.012;2023-12-20T04:29:55;10.53;;;3.23;;
18580;SDS011;9420;50.876;7.012;2023-12-20T04:32:22;23.70;;;4.03;;
18580;SDS011;9420;50.876;7.012;2023-12-20T04:34:48;20.60;;;4.07;;
18580;SDS011;9420;50.876;7.012;2023-12-20T04:37:15;17.53;;;5.10;;
18580;SDS011;9420;50.876;7.012;2023-12-20T04:39:43;16.43;;;4.50;;
18580;SDS011;9420;50.876;7.012;2023-12-20T04:42:09;16.30;;;4.10;;
18580;SDS011;9420;50.876;7.012;2023-12-20T04:44:36;24.40;;;4.50;;
18580;SDS011;9420;50.876;7.012;2023-12-20T04:47:02;22.20;;;5.17;;
18580;SDS011;9420;50.876;7.012;2023-12-20T04:49:29;15.47;;;4.17;;
18580;SDS011;9420;50.876;7.012;2023-12-20T04:51:56;20.83;;;4.90;;
18580;SDS011;9420;50.876;7.012;2023-12-20T04:54:23;18.43;;;5.47;;
18580;SDS011;9420;50.876;7.012;2023-12-20T04:56:51;21.30;;;3.93;;
18580;SDS011;9420;50.876;7.012;2023-12-20T04:59:17;11.63;;;4.40;;
18580;SDS011;9420;50.876;7.012;2023-12-20T05:01:44;12.07;;;4.07;;
18580;SDS011;9420;50.876;7.012;2023-12-20T05:04:10;18.50;;;3.90;;
18580;SDS011;9420;50.876;7.012;2023-12-20T05:06:37;11.83;;;5.10;;
18580;SDS011;9420;50.876;7.012;2023-12-20T05:09:04;11.73;;;4.20;;
18580;SDS011;9420;50.876;7.012;2023-12-20T05:11:30;16.67;;;4.70;;
18580;SDS011;9420;50.876;7.012;2023-12-20T05:13:58;23.13;;;4.83;;
18580;SDS011;9420;50.876;7.012;2023-12-20T05:16:25;23.23;;;4.40;;
18580;SDS011;9420;50.876;7.012;2023-12-20T05:18:51;15.70;;;4.57;;
18580;SDS011;9420;50.876;7.012;2023-12-20T05:21:18;20.17;;;5.70;;
18580;SDS011;9420;50.876;7.012;2023-12-20T05:23:45;14.37;;;4.47;;
18580;SDS011;9420;50.876;7.012;2023-12-20T05:26:12;17.80;;;5.00;;
18580;SDS011;9420;50.876;7.012;2023-12-20T05:28:38;16.73;;;4.63;;
18580;SDS011;9420;50.876;7.012;2023-12-20T05:31:06;14.97;;;4.33;;
18580;SDS011;9420;50.876;7.012;2023-12-20T05:33:33;16.20;;;4.70;;
18580;SDS011;9420;50.876;7.012;2023-12-20T05:35:59;15.93;;;4.70;;
18580;SDS011;9420;50.876;7.012;2023-12-20T05:38:26;13.07;;;4.23;;
18580;SDS011;9420;50.876;7.012;2023-12-20T05:40:53;15.13;;;4.83;;
18580;SDS011;9420;50.876;7.012;2023-12-20T05:43:19;21.03;;;4.60;;
18580;SDS011;9420;50.876;7.012;2023-12-20T05:45:46;16.87;;;5.20;;
18580;SDS011;9420;50.876;7.012;2023-12-20T05:48:14;19.07;;;4.87;;
18580;SDS011;9420;50.876;7.012;2023-12-20T05:50:40;19.40;;;6.27;;
18580;SDS011;9420;50.876;7.012;2023-12-20T05:53:07;18.03;;;5.40;;
18580;SDS011;9420;50.876;7.012;2023-12-20T05:55:34;17.43;;;4.40;;
18580;SDS011;9420;50.876;7.012;2023-12-20T05:58:00;14.87;;;4.83;;
18580;SDS011;9420;50.876;7.012;2023-12-20T06:00:27;15.77;;;4.40;;
18580;SDS011;9420;50.876;7.012;2023-12-20T06:02:53;16.27;;;4.53;;
18580;SDS011;9420;50.876;7.012;2023-12-20T06:05:22;21.33;;;5.70;;
18580;SDS011;9420;50.876;7.012;2023-12-20T06:07:49;22.00;;;4.80;;
18580;SDS011;9420;50.876;7.012;2023-12-20T06:10:16;19.43;;;5.07;;
18580;SDS011;9420;50.876;7.012;2023-12-20T06:12:43;28.03;;;5.27;;
18580;SDS011;9420;50.876;7.012;2023-12-20T06:15:12;10.83;;;5.03;;
18580;SDS011;9420;50.876;7.012;2023-12-20T06:17:38;12.60;;;4.37;;
18580;SDS011;9420;50.876;7.012;2023-12-20T06:20:06;19.53;;;5.67;;
18580;SDS011;9420;50.876;7.012;2023-12-20T06:22:35;23.07;;;5.87;;
18580;SDS011;9420;50.876;7.012;2023-12-20T06:25:02;21.53;;;5.63;;
18580;SDS011;9420;50.876;7.012;2023-12-20T06:27:29;17.77;;;4.83;;
18580;SDS011;9420;50.876;7.012;2023-12-20T06:29:57;14.50;;;5.30;;
18580;SDS011;9420;50.876;7.012;2023-12-20T06:32:24;16.90;;;5.80;;
18580;SDS011;9420;50.876;7.012;2023-12-20T06:34:51;19.63;;;5.50;;
18580;SDS011;9420;50.876;7.012;2023-12-20T06:37:17;25.07;;;6.13;;
18580;SDS011;9420;50.876;7.012;2023-12-20T06:39:45;20.43;;;6.00;;
18580;SDS011;9420;50.876;7.012;2023-12-20T06:42:12;28.60;;;6.27;;
18580;SDS011;9420;50.876;7.012;2023-12-20T06:44:39;16.33;;;5.60;;
18580;SDS011;9420;50.876;7.012;2023-12-20T06:47:05;21.07;;;5.97;;
18580;SDS011;9420;50.876;7.012;2023-12-20T06:49:32;15.47;;;4.93;;
18580;SDS011;9420;50.876;7.012;2023-12-20T06:51:59;17.87;;;5.30;;
18580;SDS011;9420;50.876;7.012;2023-12-20T06:54:25;23.37;;;5.93;;
18580;SDS011;9420;50.876;7.012;2023-12-20T06:56:53;22.77;;;5.53;;
18580;SDS011;9420;50.876;7.012;2023-12-20T06:59:20;15.20;;;4.97;;
18580;SDS011;9420;50.876;7.012;2023-12-20T07:01:47;15.17;;;4.23;;
18580;SDS011;9420;50.876;7.012;2023-12-20T07:04:15;13.63;;;4.13;;
18580;SDS011;9420;50.876;7.012;2023-12-20T07:06:45;19.27;;;4.53;;
18580;SDS011;9420;50.876;7.012;2023-12-20T07:09:13;24.97;;;4.93;;
18580;SDS011;9420;50.876;7.012;2023-12-20T07:11:40;21.03;;;4.63;;
18580;SDS011;9420;50.876;7.012;2023-12-20T07:14:08;22.33;;;5.20;;
18580;SDS011;9420;50.876;7.012;2023-12-20T07:16:35;11.60;;;4.50;;
18580;SDS011;9420;50.876;7.012;2023-12-20T07:19:02;15.43;;;4.57;;
18580;SDS011;9420;50.876;7.012;2023-12-20T07:21:28;23.77;;;5.10;;
18580;SDS011;9420;50.876;7.012;2023-12-20T07:23:55;19.40;;;4.70;;
18580;SDS011;9420;50.876;7.012;2023-12-20T07:26:22;17.00;;;4.63;;
18580;SDS011;9420;50.876;7.012;2023-12-20T07:28:48;17.93;;;4.27;;
18580;SDS011;9420;50.876;7.012;2023-12-20T07:31:17;24.30;;;5.53;;
18580;SDS011;9420;50.876;7.012;2023-12-20T07:33:43;16.93;;;4.33;;
18580;SDS011;9420;50.876;7.012;2023-12-20T07:36:10;20.83;;;6.00;;
18580;SDS011;9420;50.876;7.012;2023-12-20T07:38:37;21.00;;;6.40;;
18580;SDS011;9420;50.876;7.012;2023-12-20T07:41:04;28.27;;;8.53;;
18580;SDS011;9420;50.876;7.012;2023-12-20T07:43:30;23.03;;;6.73;;
18580;SDS011;9420;50.876;7.012;2023-12-20T07:46:01;16.47;;;7.27;;
18580;SDS011;9420;50.876;7.012;2023-12-20T07:48:32;21.43;;;5.50;;
18580;SDS011;9420;50.876;7.012;2023-12-20T07:50:59;18.20;;;5.83;;
18580;SDS011;9420;50.876;7.012;2023-12-20T07:53:25;16.67;;;6.03;;
18580;SDS011;9420;50.876;7.012;2023-12-20T07:55:52;14.20;;;5.67;;
18580;SDS011;9420;50.876;7.012;2023-12-20T07:58:19;17.80;;;5.47;;
18580;SDS011;9420;50.876;7.012;2023-12-20T08:00:46;18.40;;;6.43;;
18580;SDS011;9420;50.876;7.012;2023-12-20T08:03:12;23.07;;;6.13;;
18580;SDS011;9420;50.876;7.012;2023-12-20T08:05:41;20.73;;;6.40;;
18580;SDS011;9420;50.876;7.012;2023-12-20T08:08:07;15.83;;;5.50;;
18580;SDS011;9420;50.876;7.012;2023-12-20T08:10:34;13.00;;;5.30;;
18580;SDS011;9420;50.876;7.012;2023-12-20T08:13:01;18.47;;;5.33;;
18580;SDS011;9420;50.876;7.012;2023-12-20T08:15:28;13.57;;;5.17;;
18580;SDS011;9420;50.876;7.012;2023-12-20T08:17:55;16.13;;;5.37;;
18580;SDS011;9420;50.876;7.012;2023-12-20T08:20:21;16.60;;;5.23;;
18580;SDS011;9420;50.876;7.012;2023-12-20T08:22:49;14.80;;;5.93;;
18580;SDS011;9420;50.876;7.012;2023-12-20T08:25:16;19.57;;;5.57;;
18580;SDS011;9420;50.876;7.012;2023-12-20T08:27:42;18.43;;;4.80;;
18580;SDS011;9420;50.876;7.012;2023-12-20T08:30:09;26.73;;;6.47;;
18580;SDS011;9420;50.876;7.012;2023-12-20T08:32:37;17.73;;;5.60;;
18580;SDS011;9420;50.876;7.012;2023-12-20T08:35:04;18.97;;;5.83;;
18580;SDS011;9420;50.876;7.012;2023-12-20T08:37:31;25.67;;;5.30;;
18580;SDS011;9420;50.876;7.012;2023-12-20T08:39:59;25.67;;;5.63;;
18580;SDS011;9420;50.876;7.012;2023-12-20T08:42:26;21.33;;;5.47;;
18580;SDS011;9420;50.876;7.012;2023-12-20T08:44:56;24.17;;;6.50;;
18580;SDS011;9420;50.876;7.012;2023-12-20T08:47:23;21.40;;;6.20;;
18580;SDS011;9420;50.876;7.012;2023-12-20T08:49:50;23.13;;;5.77;;
18580;SDS011;9420;50.876;7.012;2023-12-20T08:52:17;17.90;;;5.43;;
18580;SDS011;9420;50.876;7.012;2023-12-20T08:54:44;22.87;;;5.20;;
18580;SDS011;9420;50.876;7.012;2023-12-20T08:57:12;16.60;;;4.70;;
18580;SDS011;9420;50.876;7.012;2023-12-20T08:59:38;13.67;;;4.20;;
18580;SDS011;9420;50.876;7.012;2023-12-20T09:02:05;17.40;;;4.83;;
18580;SDS011;9420;50.876;7.012;2023-12-20T09:04:32;19.23;;;4.80;;
18580;SDS011;9420;50.876;7.012;2023-12-20T09:07:00;13.27;;;4.73;;
18580;SDS011;9420;50.876;7.012;2023-12-20T09:09:27;17.20;;;4.13;;
18580;SDS011;9420;50.876;7.012;2023-12-20T09:11:54;18.23;;;5.07;;
18580;SDS011;9420;50.876;7.012;2023-12-20T09:14:22;15.43;;;4.47;;
18580;SDS011;9420;50.876;7.012;2023-12-20T09:16:49;20.23;;;4.93;;
18580;SDS011;9420;50.876;7.012;2023-12-20T09:19:16;19.10;;;5.40;;
18580;SDS011;9420;50.876;7.012;2023-12-20T09:21:43;8.93;;;3.57;;
18580;SDS011;9420;50.876;7.012;2023-12-20T09:24:10;20.80;;;4.67;;
18580;SDS011;9420;50.876;7.012;2023-12-20T09:26:36;18.00;;;5.77;;
18580;SDS011;9420;50.876;7.012;2023-12-20T09:29:04;14.33;;;4.10;;
18580;SDS011;9420;50.876;7.012;2023-12-20T09:31:34;16.67;;;5.23;;
18580;SDS011;9420;50.876;7.012;2023-12-20T09:34:02;14.60;;;5.03;;
18580;SDS011;9420;50.876;7.012;2023-12-20T09:36:29;13.73;;;4.57;;
18580;SDS011;9420;50.876;7.012;2023-12-20T09:38:59;14.97;;;4.80;;
18580;SDS011;9420;50.876;7.012;2023-12-20T09:41:26;18.90;;;5.00;;
18580;SDS011;9420;50.876;7.012;2023-12-20T09:43:54;16.87;;;4.50;;
18580;SDS011;9420;50.876;7.012;2023-12-20T09:46:24;19.23;;;5.73;;
18580;SDS011;9420;50.876;7.012;2023-12-20T09:48:57;18.97;;;5.00;;
18580;SDS011;9420;50.876;7.012;2023-12-20T09:51:25;16.50;;;3.50;;
18580;SDS011;9420;50.876;7.012;2023-12-20T09:53:53;15.57;;;4.67;;
18580;SDS011;9420;50.876;7.012;2023-12-20T09:56:22;18.03;;;5.57;;
18580;SDS011;9420;50.876;7.012;2023-12-20T09:58:51;14.93;;;4.17;;
18580;SDS011;9420;50.876;7.012;2023-12-20T10:01:19;16.50;;;4.37;;
18580;SDS011;9420;50.876;7.012;2023-12-20T10:03:46;15.07;;;4.63;;
18580;SDS011;9420;50.876;7.012;2023-12-20T10:06:14;15.40;;;4.70;;
18580;SDS011;9420;50.876;7.012;2023-12-20T10:08:40;18.63;;;4.70;;
18580;SDS011;9420;50.876;7.012;2023-12-20T10:11:07;27.33;;;4.57;;
18580;SDS011;9420;50.876;7.012;2023-12-20T10:13:38;11.77;;;3.20;;
18580;SDS011;9420;50.876;7.012;2023-12-20T10:16:05;17.13;;;4.47;;
18580;SDS011;9420;50.876;7.012;2023-12-20T10:18:32;13.77;;;3.73;;
18580;SDS011;9420;50.876;7.012;2023-12-20T10:21:00;14.93;;;4.00;;
18580;SDS011;9420;50.876;7.012;2023-12-20T10:23:29;13.27;;;4.67;;
18580;SDS011;9420;50.876;7.012;2023-12-20T10:25:56;14.87;;;3.77;;
18580;SDS011;9420;50.876;7.012;2023-12-20T10:28:23;19.17;;;4.67;;
18580;SDS011;9420;50.876;7.012;2023-12-20T10:30:53;10.33;;;3.27;;
18580;SDS011;9420;50.876;7.012;2023-12-20T10:33:23;19.50;;;5.10;;
18580;SDS011;9420;50.876;7.012;2023-12-20T10:35:50;21.83;;;4.57;;
18580;SDS011;9420;50.876;7.012;2023-12-20T10:38:18;16.20;;;4.27;;
18580;SDS011;9420;50.876;7.012;2023-12-20T10:40:46;21.07;;;3.80;;
18580;SDS011;9420;50.876;7.012;2023-12-20T10:43:13;23.47;;;3.97;;
18580;SDS011;9420;50.876;7.012;2023-12-20T10:45:41;13.37;;;3.87;;
18580;SDS011;9420;50.876;7.012;2023-12-20T10:48:09;12.77;;;4.30;;
18580;SDS011;9420;50.876;7.012;2023-12-20T10:50:37;12.20;;;3.60;;
18580;SDS011;9420;50.876;7.012;2023-12-20T10:53:05;11.97;;;3.73;;
18580;SDS011;9420;50.876;7.012;2023-12-20T10:55:33;20.40;;;4.03;;
18580;SDS011;9420;50.876;7.012;2023-12-20T10:58:01;13.97;;;4.17;;
18580;SDS011;9420;50.876;7.012;2023-12-20T11:00:32;14.87;;;3.50;;
18580;SDS011;9420;50.876;7.012;2023-12-20T11:03:02;17.97;;;4.13;;
18580;SDS011;9420;50.876;7.012;2023-12-20T11:05:30;12.10;;;4.67;;
18580;SDS011;9420;50.876;7.012;2023-12-20T11:08:10;9.60;;;3.00;;
18580;SDS011;9420;50.876;7.012;2023-12-20T11:10:42;16.00;;;4.47;;
18580;SDS011;9420;50.876;7.012;2023-12-20T11:13:17;18.93;;;4.20;;
18580;SDS011;9420;50.876;7.012;2023-12-20T11:15:49;13.47;;;3.57;;
18580;SDS011;9420;50.876;7.012;2023-12-20T11:18:16;18.27;;;5.00;;
18580;SDS011;9420;50.876;7.012;2023-12-20T11:20:42;16.70;;;5.00;;
18580;SDS011;9420;50.876;7.012;2023-12-20T11:23:09;14.60;;;4.90;;
18580;SDS011;9420;50.876;7.012;2023-12-20T11:25:48;26.30;;;5.13;;
18580;SDS011;9420;50.876;7.012;2023-12-20T11:28:22;15.53;;;4.83;;
18580;SDS011;9420;50.876;7.012;2023-12-20T11:30:50;15.80;;;4.20;;
18580;SDS011;9420;50.876;7.012;2023-12-20T11:33:21;18.70;;;5.60;;
18580;SDS011;9420;50.876;7.012;2023-12-20T11:35:48;11.90;;;4.07;;
18580;SDS011;9420;50.876;7.012;2023-12-20T11:38:15;14.60;;;4.07;;
18580;SDS011;9420;50.876;7.012;2023-12-20T11:40:42;17.83;;;4.53;;
18580;SDS011;9420;50.876;7.012;2023-12-20T11:43:09;16.90;;;5.43;;
18580;SDS011;9420;50.876;7.012;2023-12-20T11:45:37;15.70;;;4.40;;
18580;SDS011;9420;50.876;7.012;2023-12-20T11:48:15;14.27;;;3.93;;
18580;SDS011;9420;50.876;7.012;2023-12-20T11:50:42;15.50;;;4.43;;
18580;SDS011;9420;50.876;7.012;2023-12-20T11:53:09;15.03;;;3.43;;
18580;SDS011;9420;50.876;7.012;2023-12-20T11:55:36;15.07;;;4.17;;
18580;SDS011;9420;50.876;7.012;2023-12-20T11:58:03;12.83;;;3.57;;
18580;SDS011;9420;50.876;7.012;2023-12-20T12:00:30;20.00;;;4.73;;
18580;SDS011;9420;50.876;7.012;2023-12-20T12:02:58;14.17;;;3.93;;
18580;SDS011;9420;50.876;7.012;2023-12-20T12:05:27;10.00;;;3.13;;
18580;SDS011;9420;50.876;7.012;2023-12-20T12:07:53;10.37;;;3.47;;
18580;SDS011;9420;50.876;7.012;2023-12-20T12:10:20;11.97;;;3.13;;
18580;SDS011;9420;50.876;7.012;2023-12-20T12:12:48;17.23;;;4.13;;
18580;SDS011;9420;50.876;7.012;2023-12-20T12:15:14;15.03;;;3.77;;
18580;SDS011;9420;50.876;7.012;2023-12-20T12:17:41;12.87;;;3.13;;
18580;SDS011;9420;50.876;7.012;2023-12-20T12:20:09;11.13;;;2.97;;
18580;SDS011;9420;50.876;7.012;2023-12-20T12:22:37;11.90;;;2.80;;
18580;SDS011;9420;50.876;7.012;2023-12-20T12:25:10;16.37;;;3.43;;
18580;SDS011;9420;50.876;7.012;2023-12-20T12:27:42;15.13;;;3.77;;
18580;SDS011;9420;50.876;7.012;2023-12-20T12:30:09;12.10;;;3.80;;
18580;SDS011;9420;50.876;7.012;2023-12-20T12:32:38;10.10;;;3.37;;
18580;SDS011;9420;50.876;7.012;2023-12-20T12:35:06;10.37;;;3.23;;
18580;SDS011;9420;50.876;7.012;2023-12-20T12:37:37;18.43;;;3.47;;
18580;SDS011;9420;50.876;7.012;2023-12-20T12:40:06;14.23;;;4.10;;
18580;SDS011;9420;50.876;7.012;2023-12-20T12:42:33;14.53;;;3.47;;
18580;SDS011;9420;50.876;7.012;2023-12-20T12:45:00;8.87;;;3.40;;
18580;SDS011;9420;50.876;7.012;2023-12-20T12:47:26;15.00;;;3.20;;
18580;SDS011;9420;50.876;7.012;2023-12-20T12:49:53;27.93;;;3.87;;
18580;SDS011;9420;50.876;7.012;2023-12-20T12:52:20;15.53;;;4.63;;
18580;SDS011;9420;50.876;7.012;2023-12-20T12:54:49;12.00;;;3.23;;
18580;SDS011;9420;50.876;7.012;2023-12-20T12:57:15;11.87;;;3.20;;
18580;SDS011;9420;50.876;7.012;2023-12-20T12:59:42;11.33;;;3.90;;
18580;SDS011;9420;50.876;7.012;2023-12-20T13:02:09;18.67;;;3.87;;
18580;SDS011;9420;50.876;7.012;2023-12-20T13:04:35;13.27;;;3.53;;
18580;SDS011;9420;50.876;7.012;2023-12-20T13:07:02;20.87;;;5.07;;
18580;SDS011;9420;50.876;7.012;2023-12-20T13:09:29;16.77;;;3.83;;
18580;SDS011;9420;50.876;7.012;2023-12-20T13:11:58;16.90;;;4.43;;
18580;SDS011;9420;50.876;7.012;2023-12-20T13:14:27;16.97;;;4.00;;
18580;SDS011;9420;50.876;7.012;2023-12-20T13:16:53;20.13;;;4.00;;
18580;SDS011;9420;50.876;7.012;2023-12-20T13:19:21;21.87;;;4.87;;
18580;SDS011;9420;50.876;7.012;2023-12-20T13:21:47;12.10;;;3.60;;
18580;SDS011;9420;50.876;7.012;2023-12-20T13:24:14;21.33;;;5.50;;
18580;SDS011;9420;50.876;7.012;2023-12-20T13:26:40;17.17;;;4.50;;
18580;SDS011;9420;50.876;7.012;2023-12-20T13:29:08;15.50;;;4.97;;
18580;SDS011;9420;50.876;7.012;2023-12-20T13:31:35;20.27;;;5.70;;
18580;SDS011;9420;50.876;7.012;2023-12-20T13:34:02;13.40;;;4.73;;
18580;SDS011;9420;50.876;7.012;2023-12-20T13:36:29;18.63;;;5.57;;
18580;SDS011;9420;50.876;7.012;2023-12-20T13:38:55;10.60;;;4.53;;
18580;SDS011;9420;50.876;7.012;2023-12-20T13:41:22;22.60;;;5.37;;
18580;SDS011;9420;50.876;7.012;2023-12-20T13:43:49;15.83;;;4.50;;
18580;SDS011;9420;50.876;7.012;2023-12-20T13:46:17;18.20;;;5.17;;
18580;SDS011;9420;50.876;7.012;2023-12-20T13:48:44;25.30;;;5.33;;
18580;SDS011;9420;50.876;7.012;2023-12-20T13:51:11;24.90;;;5.07;;
18580;SDS011;9420;50.876;7.012;2023-12-20T13:53:37;15.77;;;5.50;;
18580;SDS011;9420;50.876;7.012;2023-12-20T13:56:04;20.90;;;4.80;;
18580;SDS011;9420;50.876;7.012;2023-12-20T13:58:31;16.20;;;4.67;;
18580;SDS011;9420;50.876;7.012;2023-12-20T14:00:58;22.97;;;5.90;;
18580;SDS011;9420;50.876;7.012;2023-12-20T14:03:26;13.90;;;4.00;;
18580;SDS011;9420;50.876;7.012;2023-12-20T14:05:53;14.67;;;4.67;;
18580;SDS011;9420;50.876;7.012;2023-12-20T14:08:19;20.97;;;4.73;;
18580;SDS011;9420;50.876;7.012;2023-12-20T14:10:46;16.67;;;3.87;;
18580;SDS011;9420;50.876;7.012;2023-12-20T14:13:13;13.63;;;4.37;;
18580;SDS011;9420;50.876;7.012;2023-12-20T14:15:40;14.67;;;4.30;;
18580;SDS011;9420;50.876;7.012;2023-12-20T14:18:07;15.70;;;4.37;;
18580;SDS011;9420;50.876;7.012;2023-12-20T14:20:35;17.07;;;3.57;;
18580;SDS011;9420;50.876;7.012;2023-12-20T14:23:04;23.40;;;4.40;;
18580;SDS011;9420;50.876;7.012;2023-12-20T14:25:31;12.20;;;3.97;;
18580;SDS011;9420;50.876;7.012;2023-12-20T14:27:57;17.73;;;3.87;;
18580;SDS011;9420;50.876;7.012;2023-12-20T14:30:24;17.33;;;4.43;;
18580;SDS011;9420;50.876;7.012;2023-12-20T14:32:51;9.33;;;3.17;;
18580;SDS011;9420;50.876;7.012;2023-12-20T14:35:18;13.47;;;4.30;;
18580;SDS011;9420;50.876;7.012;2023-12-20T14:37:46;10.77;;;3.37;;
18580;SDS011;9420;50.876;7.012;2023-12-20T14:40:12;12.37;;;3.50;;
18580;SDS011;9420;50.876;7.012;2023-12-20T14:42:41;9.27;;;3.70;;
18580;SDS011;9420;50.876;7.012;2023-12-20T14:45:08;18.00;;;4.10;;
18580;SDS011;9420;50.876;7.012;2023-12-20T14:47:35;9.70;;;3.40;;